createdAt,value
2018-12-30T00:01:53.742Z,14.00
2018-12-30T00:04:21.650Z,13.60
2018-12-30T00:06:49.301Z,14.83
2018-12-30T00:09:16.549Z,13.40
2018-12-30T00:11:43.822Z,12.90
2018-12-30T00:14:11.181Z,13.37
2018-12-30T00:16:38.430Z,12.87
2018-12-30T00:19:05.705Z,12.03
2018-12-30T00:21:32.963Z,11.60
2018-12-30T00:24:00.323Z,11.47
2018-12-30T00:26:27.677Z,11.53
2018-12-30T00:28:54.926Z,10.93
2018-12-30T00:31:22.344Z,11.93
2018-12-30T00:33:49.694Z,9.47
2018-12-30T00:36:17.048Z,9.20
2018-12-30T00:38:44.373Z,9.83
2018-12-30T00:41:11.974Z,8.83
2018-12-30T00:43:39.223Z,9.60
2018-12-30T00:46:06.824Z,7.37
2018-12-30T00:48:34.174Z,8.00
2018-12-30T00:51:01.418Z,6.20
2018-12-30T00:53:28.709Z,7.10
2018-12-30T00:55:56.293Z,5.53
2018-12-30T00:58:23.650Z,5.47
2018-12-30T01:00:51.076Z,5.57
2018-12-30T01:03:19.224Z,6.30
2018-12-30T01:05:46.542Z,5.50
2018-12-30T01:08:13.878Z,4.83
2018-12-30T01:10:41.219Z,4.27
2018-12-30T01:13:08.544Z,4.43
2018-12-30T01:15:36.187Z,4.07
2018-12-30T01:18:03.471Z,3.80
2018-12-30T01:20:30.750Z,4.07
2018-12-30T01:22:57.994Z,3.60
2018-12-30T01:25:25.347Z,3.00
2018-12-30T01:27:52.670Z,2.27
2018-12-30T01:30:19.941Z,3.10
2018-12-30T01:32:47.271Z,2.47
2018-12-30T01:35:14.617Z,2.60
2018-12-30T01:37:41.901Z,3.20
2018-12-30T01:40:09.289Z,2.23
2018-12-30T01:42:36.533Z,3.13
2018-12-30T01:45:04.264Z,2.43
2018-12-30T01:47:31.539Z,2.63
2018-12-30T01:49:58.826Z,3.00
2018-12-30T01:52:26.138Z,3.07
2018-12-30T01:54:53.496Z,3.33
2018-12-30T01:57:20.836Z,3.13
2018-12-30T01:59:48.177Z,3.70
2018-12-30T02:02:15.918Z,3.37
2018-12-30T02:04:43.202Z,3.03
2018-12-30T02:07:10.453Z,3.17
2018-12-30T02:09:37.698Z,2.67
2018-12-30T02:12:05.314Z,3.57
2018-12-30T02:14:32.552Z,2.90
2018-12-30T02:16:59.908Z,2.70
2018-12-30T02:19:27.154Z,3.10
2018-12-30T02:21:54.407Z,2.77
2018-12-30T02:24:21.678Z,2.93
2018-12-30T02:26:48.959Z,3.10
2018-12-30T02:29:16.481Z,3.33
2018-12-30T02:31:43.757Z,3.33
2018-12-30T02:34:11.283Z,3.27
2018-12-30T02:36:38.531Z,3.30
2018-12-30T02:39:06.140Z,5.80
2018-12-30T02:41:33.453Z,3.63
2018-12-30T02:44:00.705Z,3.90
2018-12-30T02:46:27.986Z,3.27
2018-12-30T02:48:55.239Z,4.07
2018-12-30T02:51:22.514Z,3.63
2018-12-30T02:53:49.768Z,5.03
2018-12-30T02:56:17.373Z,4.00
2018-12-30T02:58:44.667Z,3.50
2018-12-30T03:01:12.173Z,3.53
2018-12-30T03:03:39.457Z,3.40
2018-12-30T03:06:06.705Z,3.37
2018-12-30T03:08:33.946Z,3.37
2018-12-30T03:11:01.326Z,4.33
2018-12-30T03:13:28.579Z,4.50
2018-12-30T03:15:56.097Z,4.50
2018-12-30T03:18:23.350Z,4.20
2018-12-30T03:20:50.703Z,4.27
2018-12-30T03:23:18.218Z,4.43
2018-12-30T03:25:45.585Z,4.53
2018-12-30T03:28:12.831Z,4.97
2018-12-30T03:30:40.124Z,5.37
2018-12-30T03:33:07.442Z,4.50
2018-12-30T03:35:34.726Z,4.10
2018-12-30T03:38:02.236Z,4.63
2018-12-30T03:40:29.558Z,4.60
2018-12-30T03:42:56.840Z,4.90
2018-12-30T03:45:24.074Z,5.87
2018-12-30T03:47:51.598Z,3.90
2018-12-30T03:50:18.903Z,4.50
2018-12-30T03:52:46.218Z,4.97
2018-12-30T03:55:13.468Z,4.03
2018-12-30T03:57:40.748Z,4.13
2018-12-30T04:00:08.024Z,4.83
2018-12-30T04:02:35.271Z,4.87
2018-12-30T04:05:02.560Z,4.53
2018-12-30T04:07:30.076Z,4.23
2018-12-30T04:09:57.378Z,4.23
2018-12-30T04:12:24.650Z,4.50
2018-12-30T04:14:51.926Z,4.40
2018-12-30T04:17:19.185Z,4.90
2018-12-30T04:19:46.455Z,4.27
2018-12-30T04:22:17.031Z,4.83
2018-12-30T04:24:42.703Z,4.70
2018-12-30T04:27:09.986Z,4.20
2018-12-30T04:29:37.225Z,4.10
2018-12-30T04:32:04.519Z,4.57
2018-12-30T04:34:31.780Z,5.13
2018-12-30T04:36:59.024Z,4.47
2018-12-30T04:39:26.295Z,5.23
2018-12-30T04:41:53.570Z,4.80
2018-12-30T04:44:20.821Z,4.23
2018-12-30T04:46:48.089Z,4.43
2018-12-30T04:49:15.386Z,4.83
2018-12-30T04:51:42.724Z,5.20
2018-12-30T04:54:09.979Z,5.17
2018-12-30T04:56:37.245Z,4.70
2018-12-30T04:59:04.522Z,4.67
2018-12-30T05:01:31.779Z,4.80
2018-12-30T05:03:59.049Z,4.57
2018-12-30T05:06:26.546Z,5.27
2018-12-30T05:08:53.837Z,5.20
2018-12-30T05:11:21.083Z,4.73
2018-12-30T05:13:48.330Z,5.83
2018-12-30T05:16:15.644Z,4.73
2018-12-30T05:18:43.206Z,5.30
2018-12-30T05:21:10.497Z,5.03
2018-12-30T05:23:37.746Z,5.90
2018-12-30T05:26:04.995Z,5.40
2018-12-30T05:28:32.270Z,5.20
2018-12-30T05:30:59.513Z,4.50
2018-12-30T05:33:26.803Z,5.63
2018-12-30T05:35:54.143Z,4.87
2018-12-30T05:38:21.393Z,5.07
2018-12-30T05:40:48.927Z,4.47
2018-12-30T05:43:16.173Z,4.50
2018-12-30T05:45:43.458Z,4.60
2018-12-30T05:48:10.918Z,4.60
2018-12-30T05:50:38.202Z,4.70
2018-12-30T05:53:05.548Z,4.00
2018-12-30T05:55:32.805Z,4.87
2018-12-30T05:58:00.074Z,5.23
2018-12-30T06:00:27.345Z,4.90
2018-12-30T06:02:54.630Z,5.20
2018-12-30T06:05:21.902Z,5.90
2018-12-30T06:07:49.193Z,5.47
2018-12-30T06:10:16.446Z,5.93
2018-12-30T06:12:43.689Z,5.07
2018-12-30T06:15:10.974Z,6.10
2018-12-30T06:17:38.220Z,7.30
2018-12-30T06:20:05.502Z,6.07
2018-12-30T06:22:32.754Z,6.73
2018-12-30T06:25:00.254Z,7.30
2018-12-30T06:27:27.533Z,15.43
2018-12-30T06:29:54.781Z,10.20
2018-12-30T06:32:22.070Z,6.93
2018-12-30T06:34:49.332Z,6.23
2018-12-30T06:37:16.573Z,5.10
2018-12-30T06:39:43.856Z,4.53
2018-12-30T06:42:11.134Z,5.20
2018-12-30T06:44:38.394Z,4.63
2018-12-30T06:47:05.683Z,4.47
2018-12-30T06:49:33.174Z,4.57
2018-12-30T06:52:00.454Z,4.37
2018-12-30T06:54:28.006Z,4.00
2018-12-30T06:56:55.261Z,5.20
2018-12-30T06:59:22.533Z,4.57
2018-12-30T07:01:49.780Z,4.83
2018-12-30T07:04:17.056Z,4.80
2018-12-30T07:06:44.587Z,4.33
2018-12-30T07:09:11.835Z,4.30
2018-12-30T07:11:39.110Z,4.20
2018-12-30T07:14:06.363Z,4.10
2018-12-30T07:16:33.645Z,5.20
2018-12-30T07:19:00.894Z,5.37
2018-12-30T07:21:28.175Z,5.50
2018-12-30T07:23:55.458Z,5.93
2018-12-30T07:26:22.710Z,5.50
2018-12-30T07:28:49.961Z,5.70
2018-12-30T07:31:17.276Z,5.97
2018-12-30T07:33:44.567Z,5.40
2018-12-30T07:36:12.121Z,6.37
2018-12-30T07:38:39.370Z,5.00
2018-12-30T07:41:06.636Z,5.80
2018-12-30T07:43:33.885Z,5.60
2018-12-30T07:46:01.134Z,5.30
2018-12-30T07:48:28.410Z,5.23
2018-12-30T07:50:55.690Z,4.87
2018-12-30T07:53:22.940Z,5.00
2018-12-30T07:55:50.217Z,5.67
2018-12-30T07:58:17.462Z,5.80
2018-12-30T08:00:44.718Z,6.27
2018-12-30T08:03:12.001Z,6.80
2018-12-30T08:05:39.523Z,5.60
2018-12-30T08:08:06.778Z,4.80
2018-12-30T08:10:34.023Z,5.90
2018-12-30T08:13:01.349Z,6.40
2018-12-30T08:15:28.631Z,6.20
2018-12-30T08:17:56.005Z,6.33
2018-12-30T08:20:23.279Z,5.97
2018-12-30T08:22:50.554Z,7.13
2018-12-30T08:25:17.799Z,7.23
2018-12-30T08:27:45.334Z,7.23
2018-12-30T08:30:12.616Z,8.37
2018-12-30T08:32:39.860Z,7.73
2018-12-30T08:35:07.134Z,7.20
2018-12-30T08:37:34.382Z,8.47
2018-12-30T08:40:01.667Z,8.73
2018-12-30T08:42:28.934Z,7.70
2018-12-30T08:44:56.211Z,8.00
2018-12-30T08:47:23.496Z,8.40
2018-12-30T08:49:50.737Z,8.00
2018-12-30T08:52:18.009Z,8.30
2018-12-30T08:54:45.275Z,8.07
2018-12-30T08:57:12.521Z,8.77
2018-12-30T08:59:39.953Z,8.60
2018-12-30T09:02:07.239Z,9.50
2018-12-30T09:04:34.570Z,8.83
2018-12-30T09:07:01.850Z,9.30
2018-12-30T09:09:29.181Z,9.80
2018-12-30T09:11:56.426Z,8.60
2018-12-30T09:14:23.705Z,8.63
2018-12-30T09:16:51.223Z,8.60
2018-12-30T09:19:18.554Z,8.53
2018-12-30T09:21:46.099Z,9.50
2018-12-30T09:24:13.595Z,8.33
2018-12-30T09:26:40.863Z,8.90
2018-12-30T09:29:08.156Z,10.13
2018-12-30T09:31:35.433Z,8.30
2018-12-30T09:34:02.815Z,10.43
2018-12-30T09:36:30.382Z,9.13
2018-12-30T09:38:57.631Z,8.03
2018-12-30T09:41:24.878Z,9.70
2018-12-30T09:43:52.166Z,10.40
2018-12-30T09:46:19.415Z,9.57
2018-12-30T09:48:46.699Z,12.17
2018-12-30T09:51:14.240Z,10.27
2018-12-30T09:53:45.266Z,8.83
2018-12-30T09:56:11.173Z,8.80
2018-12-30T09:58:38.426Z,9.50
2018-12-30T10:01:05.689Z,9.07
2018-12-30T10:03:33.222Z,9.30
2018-12-30T10:06:00.465Z,8.47
2018-12-30T10:08:27.753Z,10.53
2018-12-30T10:10:55.010Z,9.80
2018-12-30T10:13:22.339Z,11.43
2018-12-30T10:15:49.618Z,9.63
2018-12-30T10:18:16.875Z,9.70
2018-12-30T10:20:44.160Z,10.50
2018-12-30T10:23:11.410Z,11.10
2018-12-30T10:25:38.914Z,9.53
2018-12-30T10:28:06.190Z,10.03
2018-12-30T10:30:33.704Z,10.00
2018-12-30T10:33:01.230Z,9.00
2018-12-30T10:35:28.503Z,9.47
2018-12-30T10:37:55.750Z,9.57
2018-12-30T10:40:23.374Z,8.27
2018-12-30T10:42:50.927Z,9.93
2018-12-30T10:45:18.458Z,9.30
2018-12-30T10:47:45.967Z,8.77
2018-12-30T10:50:13.319Z,8.83
2018-12-30T10:52:40.566Z,9.10
2018-12-30T10:55:07.821Z,8.40
2018-12-30T10:57:35.362Z,7.73
2018-12-30T11:00:02.681Z,8.03
2018-12-30T11:02:30.006Z,8.00
2018-12-30T11:04:57.259Z,7.60
2018-12-30T11:07:24.796Z,7.43
2018-12-30T11:09:52.066Z,6.67
2018-12-30T11:12:19.319Z,6.80
2018-12-30T11:14:46.859Z,6.10
2018-12-30T11:17:14.112Z,6.87
2018-12-30T11:19:41.455Z,6.40
2018-12-30T11:22:08.727Z,5.70
2018-12-30T11:24:36.076Z,4.83
2018-12-30T11:27:03.443Z,5.27
2018-12-30T11:29:30.724Z,5.17
2018-12-30T11:31:58.428Z,5.37
2018-12-30T11:34:25.683Z,5.80
2018-12-30T11:36:53.018Z,6.37
2018-12-30T11:39:20.699Z,6.57
2018-12-30T11:41:48.362Z,5.17
2018-12-30T11:44:15.685Z,4.77
2018-12-30T11:46:42.966Z,5.10
2018-12-30T11:49:10.517Z,5.10
2018-12-30T11:51:37.786Z,4.60
2018-12-30T11:54:05.062Z,5.00
2018-12-30T11:56:32.351Z,4.43
2018-12-30T11:58:59.593Z,4.40
2018-12-30T12:01:26.842Z,4.60
2018-12-30T12:03:54.378Z,4.23
2018-12-30T12:06:21.631Z,3.90
2018-12-30T12:08:48.911Z,4.20
2018-12-30T12:11:16.156Z,3.53
2018-12-30T12:13:43.426Z,3.40
2018-12-30T12:16:10.668Z,3.63
2018-12-30T12:18:37.951Z,4.23
2018-12-30T12:21:05.192Z,3.30
2018-12-30T12:23:32.471Z,3.37
2018-12-30T12:25:59.713Z,3.60
2018-12-30T12:28:27.062Z,3.57
2018-12-30T12:30:54.426Z,3.27
2018-12-30T12:33:21.682Z,2.70
2018-12-30T12:35:48.954Z,3.90
2018-12-30T12:38:16.201Z,3.13
2018-12-30T12:40:43.476Z,3.27
2018-12-30T12:43:10.737Z,3.13
2018-12-30T12:45:38.105Z,2.47
2018-12-30T12:48:05.353Z,3.10
2018-12-30T12:50:32.641Z,3.23
2018-12-30T12:52:59.889Z,3.70
2018-12-30T12:55:27.153Z,2.80
2018-12-30T12:57:54.479Z,2.90
2018-12-30T13:00:21.721Z,3.37
2018-12-30T13:02:49.011Z,2.90
2018-12-30T13:05:16.262Z,2.90
2018-12-30T13:07:43.539Z,2.67
2018-12-30T13:10:11.107Z,3.57
2018-12-30T13:12:38.355Z,2.73
2018-12-30T13:15:06.498Z,3.00
2018-12-30T13:17:33.774Z,3.50
2018-12-30T13:20:01.018Z,2.93
2018-12-30T13:22:28.558Z,3.00
2018-12-30T13:24:55.811Z,4.20
2018-12-30T13:27:23.058Z,2.77
2018-12-30T13:29:50.413Z,3.37
2018-12-30T13:32:17.666Z,2.73
2018-12-30T13:34:45.168Z,2.70
2018-12-30T13:37:12.437Z,2.90
2018-12-30T13:39:39.681Z,3.03
2018-12-30T13:42:06.957Z,3.20
2018-12-30T13:44:34.210Z,2.50
2018-12-30T13:47:02.035Z,2.50
2018-12-30T13:49:29.306Z,2.50
2018-12-30T13:51:56.582Z,2.10
2018-12-30T13:54:23.831Z,2.40
2018-12-30T13:56:51.371Z,2.90
2018-12-30T13:59:18.646Z,3.00
2018-12-30T14:01:45.896Z,2.53
2018-12-30T14:04:13.171Z,3.03
2018-12-30T14:06:40.412Z,2.43
2018-12-30T14:09:07.754Z,2.00
2018-12-30T14:11:35.002Z,3.30
2018-12-30T14:14:02.275Z,1.70
2018-12-30T14:16:29.518Z,2.10
2018-12-30T14:18:56.782Z,2.30
2018-12-30T14:21:24.033Z,2.10
2018-12-30T14:23:51.341Z,2.40
2018-12-30T14:26:18.873Z,2.20
2018-12-30T14:28:46.379Z,1.90
2018-12-30T14:31:13.621Z,2.07
2018-12-30T14:33:40.894Z,2.40
2018-12-30T14:36:08.171Z,3.50
2018-12-30T14:38:35.671Z,2.63
2018-12-30T14:41:02.951Z,2.10
2018-12-30T14:43:31.050Z,2.60
2018-12-30T14:45:58.331Z,3.43
2018-12-30T14:48:25.758Z,2.33
2018-12-30T14:50:53.282Z,2.77
2018-12-30T14:53:20.546Z,2.47
2018-12-30T14:55:48.059Z,2.23
2018-12-30T14:58:15.343Z,3.20
2018-12-30T15:00:42.586Z,2.60
2018-12-30T15:03:09.870Z,2.60
2018-12-30T15:05:37.140Z,3.40
2018-12-30T15:08:04.383Z,2.03
2018-12-30T15:10:31.658Z,3.50
2018-12-30T15:12:58.933Z,3.03
2018-12-30T15:15:26.180Z,2.50
2018-12-30T15:17:53.525Z,2.33
2018-12-30T15:20:20.799Z,2.87
2018-12-30T15:22:48.051Z,2.53
2018-12-30T15:25:15.413Z,2.83
2018-12-30T15:27:42.657Z,2.97
2018-12-30T15:30:09.906Z,2.63
2018-12-30T15:32:37.186Z,3.27
2018-12-30T15:35:05.312Z,3.20
2018-12-30T15:37:32.594Z,2.80
2018-12-30T15:40:00.165Z,2.83
2018-12-30T15:42:27.728Z,2.83
2018-12-30T15:44:54.965Z,2.80
2018-12-30T15:47:22.459Z,2.83
2018-12-30T15:49:49.739Z,3.37
2018-12-30T15:52:16.986Z,3.40
2018-12-30T15:54:44.632Z,2.90
2018-12-30T15:57:11.957Z,2.90
2018-12-30T15:59:39.208Z,3.10
2018-12-30T16:02:06.487Z,3.40
2018-12-30T16:04:33.731Z,3.10
2018-12-30T16:07:01.419Z,2.87
2018-12-30T16:09:28.668Z,2.60
2018-12-30T16:11:56.026Z,2.47
2018-12-30T16:14:23.350Z,3.30
2018-12-30T16:16:51.636Z,3.53
2018-12-30T16:19:18.949Z,2.40
2018-12-30T16:21:46.479Z,3.07
2018-12-30T16:24:13.970Z,3.43
2018-12-30T16:26:41.209Z,3.50
2018-12-30T16:29:08.485Z,3.43
2018-12-30T16:31:35.734Z,3.23
2018-12-30T16:34:02.981Z,3.50
2018-12-30T16:36:30.255Z,3.00
2018-12-30T16:38:57.530Z,3.53
2018-12-30T16:41:24.815Z,4.23
2018-12-30T16:43:52.058Z,3.50
2018-12-30T16:46:19.344Z,4.20
2018-12-30T16:48:46.857Z,3.50
2018-12-30T16:51:14.134Z,3.63
2018-12-30T16:53:41.386Z,3.20
2018-12-30T16:56:08.747Z,4.00
2018-12-30T16:58:35.989Z,3.70
2018-12-30T17:01:03.270Z,3.60
2018-12-30T17:03:30.594Z,3.50
2018-12-30T17:05:57.873Z,3.03
2018-12-30T17:08:25.122Z,3.37
2018-12-30T17:10:52.370Z,3.70
2018-12-30T17:13:19.676Z,3.40
2018-12-30T17:15:47.009Z,3.73
2018-12-30T17:18:14.256Z,3.70
2018-12-30T17:20:42.035Z,3.70
2018-12-30T17:23:09.697Z,4.57
2018-12-30T17:25:42.953Z,3.00
2018-12-30T17:28:05.913Z,3.20
2018-12-30T17:30:33.287Z,3.47
2018-12-30T17:33:00.778Z,3.50
2018-12-30T17:35:28.097Z,3.37
2018-12-30T17:37:55.387Z,2.77
2018-12-30T17:40:22.635Z,2.90
2018-12-30T17:42:49.926Z,2.80
2018-12-30T17:45:17.175Z,3.17
2018-12-30T17:47:44.721Z,3.07
2018-12-30T17:50:12.045Z,3.53
2018-12-30T17:52:39.321Z,3.53
2018-12-30T17:55:06.681Z,3.57
2018-12-30T17:57:33.970Z,4.67
2018-12-30T18:00:01.240Z,4.33
2018-12-30T18:02:28.526Z,3.30
2018-12-30T18:04:55.789Z,3.60
2018-12-30T18:07:23.282Z,3.13
2018-12-30T18:09:50.567Z,4.77
2018-12-30T18:12:18.124Z,3.70
2018-12-30T18:14:45.411Z,3.73
2018-12-30T18:17:12.661Z,4.80
2018-12-30T18:19:39.936Z,4.23
2018-12-30T18:22:07.218Z,4.30
2018-12-30T18:24:34.611Z,4.83
2018-12-30T18:27:01.890Z,3.87
2018-12-30T18:29:29.386Z,4.70
2018-12-30T18:31:57.003Z,5.17
2018-12-30T18:34:24.256Z,5.00
2018-12-30T18:36:51.828Z,4.43
2018-12-30T18:39:19.330Z,4.80
2018-12-30T18:41:46.781Z,4.50
2018-12-30T18:44:14.054Z,5.40
2018-12-30T18:46:41.371Z,5.87
2018-12-30T18:49:08.618Z,4.57
2018-12-30T18:51:35.895Z,4.77
2018-12-30T18:54:03.142Z,5.00
2018-12-30T18:56:30.423Z,4.70
2018-12-30T18:58:57.705Z,5.90
2018-12-30T19:01:24.987Z,6.00
2018-12-30T19:03:52.238Z,5.60
2018-12-30T19:06:19.507Z,5.70
2018-12-30T19:08:46.749Z,5.40
2018-12-30T19:11:14.017Z,5.17
2018-12-30T19:13:41.565Z,5.30
2018-12-30T19:16:08.806Z,5.20
2018-12-30T19:18:36.338Z,5.47
2018-12-30T19:21:03.587Z,5.10
2018-12-30T19:23:31.114Z,5.30
2018-12-30T19:26:01.115Z,5.60
2018-12-30T19:28:27.362Z,5.50
2018-12-30T19:30:54.719Z,5.70
2018-12-30T19:33:22.012Z,5.30
2018-12-30T19:35:49.256Z,5.87
2018-12-30T19:38:16.499Z,6.57
2018-12-30T19:40:44.049Z,6.37
2018-12-30T19:43:11.402Z,6.40
2018-12-30T19:45:38.648Z,6.13
2018-12-30T19:48:06.006Z,5.73
2018-12-30T19:50:33.252Z,6.40
2018-12-30T19:53:00.498Z,6.20
2018-12-30T19:55:27.779Z,6.20
2018-12-30T19:57:55.025Z,6.40
2018-12-30T20:00:22.303Z,6.90
2018-12-30T20:02:49.551Z,6.43
2018-12-30T20:05:16.841Z,7.07
2018-12-30T20:07:44.086Z,6.40
2018-12-30T20:10:11.429Z,8.50
2018-12-30T20:12:38.775Z,7.93
2018-12-30T20:15:06.802Z,6.90
2018-12-30T20:17:34.069Z,6.60
2018-12-30T20:20:02.270Z,6.90
2018-12-30T20:22:29.923Z,8.87
2018-12-30T20:24:57.201Z,8.00
2018-12-30T20:27:24.450Z,7.40
2018-12-30T20:29:51.738Z,8.33
2018-12-30T20:32:18.990Z,7.87
2018-12-30T20:34:46.263Z,8.77
2018-12-30T20:37:13.591Z,8.33
2018-12-30T20:39:40.953Z,7.93
2018-12-30T20:42:08.202Z,8.53
2018-12-30T20:44:35.455Z,9.00
2018-12-30T20:47:02.996Z,10.00
2018-12-30T20:49:30.242Z,9.47
2018-12-30T20:51:57.779Z,10.23
2018-12-30T20:54:25.065Z,12.00
2018-12-30T20:56:52.610Z,8.73
2018-12-30T20:59:19.862Z,8.63
2018-12-30T21:01:47.390Z,8.90
2018-12-30T21:04:14.639Z,8.57
2018-12-30T21:06:41.922Z,8.93
2018-12-30T21:09:09.197Z,10.70
2018-12-30T21:11:36.457Z,9.50
2018-12-30T21:14:03.714Z,11.07
2018-12-30T21:16:30.992Z,9.47
2018-12-30T21:18:58.534Z,9.63
2018-12-30T21:21:25.789Z,10.80
2018-12-30T21:23:53.039Z,9.20
2018-12-30T21:26:20.338Z,9.37
2018-12-30T21:28:47.641Z,9.97
2018-12-30T21:31:14.924Z,10.07
2018-12-30T21:33:42.166Z,11.07
2018-12-30T21:36:09.450Z,10.60
2018-12-30T21:38:36.697Z,10.37
2018-12-30T21:41:04.227Z,10.20
2018-12-30T21:43:31.555Z,11.50
2018-12-30T21:45:58.854Z,10.90
2018-12-30T21:48:26.114Z,10.50
2018-12-30T21:50:53.654Z,10.43
2018-12-30T21:53:20.912Z,10.27
2018-12-30T21:55:48.165Z,10.40
2018-12-30T21:58:15.438Z,9.67
2018-12-30T22:00:42.696Z,9.83
2018-12-30T22:03:10.214Z,10.97
2018-12-30T22:05:37.566Z,9.20
2018-12-30T22:08:05.190Z,9.60
2018-12-30T22:10:32.478Z,9.60
2018-12-30T22:12:59.731Z,9.27
2018-12-30T22:15:26.977Z,8.83
2018-12-30T22:17:54.506Z,9.53
2018-12-30T22:20:21.870Z,10.23
2018-12-30T22:22:49.115Z,8.70
2018-12-30T22:25:16.478Z,9.10
2018-12-30T22:27:43.814Z,9.47
2018-12-30T22:30:11.058Z,9.70
2018-12-30T22:32:38.333Z,7.43
2018-12-30T22:35:05.859Z,9.80
2018-12-30T22:37:33.359Z,7.23
2018-12-30T22:40:00.910Z,7.60
2018-12-30T22:42:32.617Z,7.43
2018-12-30T22:44:57.395Z,6.60
2018-12-30T22:47:24.644Z,8.53
2018-12-30T22:49:52.165Z,7.80
2018-12-30T22:52:19.411Z,6.60
2018-12-30T22:54:46.672Z,6.67
2018-12-30T22:57:14.195Z,6.17
2018-12-30T22:59:41.477Z,6.63
2018-12-30T23:02:08.714Z,5.30
2018-12-30T23:04:35.981Z,5.90
2018-12-30T23:07:03.274Z,5.90
2018-12-30T23:09:30.501Z,5.47
2018-12-30T23:11:57.754Z,5.37
2018-12-30T23:14:25.026Z,5.17
2018-12-30T23:16:52.532Z,5.10
2018-12-30T23:19:20.047Z,5.10
2018-12-30T23:21:47.285Z,4.90
2018-12-30T23:24:14.834Z,6.90
2018-12-30T23:26:42.358Z,5.07
2018-12-30T23:29:09.633Z,5.80
2018-12-30T23:31:36.878Z,4.90
2018-12-30T23:34:04.162Z,5.67
2018-12-30T23:36:31.410Z,6.13
2018-12-30T23:38:58.678Z,5.70
2018-12-30T23:41:25.963Z,5.17
2018-12-30T23:43:53.497Z,6.23
2018-12-30T23:46:20.742Z,5.60
2018-12-30T23:48:47.986Z,6.10
2018-12-30T23:51:15.359Z,6.00
2018-12-30T23:53:42.597Z,5.83
2018-12-30T23:56:09.842Z,5.87
2018-12-30T23:58:37.116Z,6.37
